createdAt,value
2023-05-06T00:02:34.426Z,66.54
2023-05-06T00:05:37.292Z,66.76
2023-05-06T00:08:40.048Z,67.07
2023-05-06T00:11:42.917Z,67.01
2023-05-06T00:14:45.665Z,67.03
2023-05-06T00:17:48.422Z,67.06
2023-05-06T00:20:51.205Z,67.13
2023-05-06T00:23:53.951Z,66.92
2023-05-06T00:26:56.850Z,67.44
2023-05-06T00:29:59.627Z,67.78
2023-05-06T00:33:03.459Z,67.97
2023-05-06T00:36:06.724Z,67.84
2023-05-06T00:39:10.031Z,67.66
2023-05-06T00:42:13.116Z,67.70
2023-05-06T00:45:16.039Z,68.02
2023-05-06T00:48:18.938Z,67.99
2023-05-06T00:51:23.009Z,67.77
2023-05-06T00:54:26.822Z,67.74
2023-05-06T00:57:29.787Z,68.25
2023-05-06T01:00:32.981Z,68.12
2023-05-06T01:03:35.866Z,68.27
2023-05-06T01:06:50.743Z,68.64
2023-05-06T01:10:13.655Z,68.50
2023-05-06T01:13:46.356Z,68.74
2023-05-06T01:16:54.635Z,68.67
2023-05-06T01:20:01.450Z,68.87
2023-05-06T01:23:09.209Z,68.84
2023-05-06T01:26:11.961Z,68.95
2023-05-06T01:29:16.146Z,68.82
2023-05-06T01:32:50.520Z,69.00
2023-05-06T01:36:13.219Z,69.20
2023-05-06T01:39:18.912Z,69.36
2023-05-06T01:42:24.557Z,69.24
2023-05-06T01:45:31.707Z,69.34
2023-05-06T01:48:37.497Z,69.33
2023-05-06T01:51:40.292Z,69.19
2023-05-06T01:54:44.199Z,69.29
2023-05-06T01:57:46.942Z,69.26
2023-05-06T02:00:49.777Z,69.32
2023-05-06T02:03:52.742Z,69.23
2023-05-06T02:06:55.939Z,69.14
2023-05-06T02:09:58.874Z,69.01
2023-05-06T02:13:01.835Z,69.02
2023-05-06T02:16:05.576Z,69.12
2023-05-06T02:19:08.822Z,69.15
2023-05-06T02:22:11.629Z,69.20
2023-05-06T02:25:14.507Z,69.04
2023-05-06T02:28:17.348Z,69.03
2023-05-06T02:31:20.511Z,68.92
2023-05-06T02:34:24.108Z,68.80
2023-05-06T02:37:26.836Z,68.93
2023-05-06T02:40:29.744Z,68.92
2023-05-06T02:43:32.602Z,68.99
2023-05-06T02:46:35.336Z,68.95
2023-05-06T02:49:38.226Z,69.16
2023-05-06T02:52:41.006Z,69.12
2023-05-06T02:55:43.827Z,69.13
2023-05-06T02:58:46.525Z,69.10
2023-05-06T03:01:49.405Z,69.24
2023-05-06T03:04:52.184Z,69.09
2023-05-06T03:07:55.350Z,69.20
2023-05-06T03:10:58.134Z,69.02
2023-05-06T03:14:00.967Z,69.03
2023-05-06T03:17:04.266Z,69.10
2023-05-06T03:20:08.723Z,68.94
2023-05-06T03:23:13.277Z,68.95
2023-05-06T03:26:16.056Z,68.89
2023-05-06T03:29:22.498Z,68.95
2023-05-06T03:32:25.646Z,68.90
2023-05-06T03:35:29.211Z,68.78
2023-05-06T03:38:33.951Z,68.86
2023-05-06T03:41:38.716Z,68.95
2023-05-06T03:44:42.682Z,68.97
2023-05-06T03:47:46.063Z,69.05
2023-05-06T03:50:49.310Z,69.01
2023-05-06T03:53:54.744Z,69.00
2023-05-06T03:56:58.005Z,68.65
2023-05-06T04:00:01.594Z,68.78
2023-05-06T04:03:07.012Z,68.75
2023-05-06T04:06:16.704Z,68.76
2023-05-06T04:09:19.564Z,68.58
2023-05-06T04:12:23.781Z,68.67
2023-05-06T04:15:26.748Z,68.50
2023-05-06T04:18:30.712Z,68.41
2023-05-06T04:21:40.417Z,68.36
2023-05-06T04:24:45.729Z,68.19
2023-05-06T04:27:49.594Z,68.21
2023-05-06T04:30:53.111Z,68.15
2023-05-06T04:33:57.634Z,67.86
2023-05-06T04:37:01.000Z,67.87
2023-05-06T04:40:13.895Z,67.83
2023-05-06T04:43:18.421Z,67.77
2023-05-06T04:46:23.186Z,67.75
2023-05-06T04:49:26.844Z,67.50
2023-05-06T04:52:30.587Z,67.28
2023-05-06T04:55:34.509Z,67.01
2023-05-06T04:58:37.683Z,66.57
2023-05-06T05:01:40.512Z,66.27
2023-05-06T05:04:44.177Z,66.60
2023-05-06T05:07:47.071Z,66.50
2023-05-06T05:10:50.302Z,66.24
2023-05-06T05:13:57.118Z,66.12
2023-05-06T05:17:00.791Z,65.68
2023-05-06T05:20:05.791Z,65.35
2023-05-06T05:23:08.551Z,65.45
2023-05-06T05:26:13.115Z,65.28
2023-05-06T05:29:16.355Z,65.52
2023-05-06T05:32:20.175Z,65.24
2023-05-06T05:35:23.137Z,65.06
2023-05-06T05:38:27.545Z,64.73
2023-05-06T05:41:30.428Z,65.01
2023-05-06T05:44:33.494Z,64.82
2023-05-06T05:47:36.744Z,64.79
2023-05-06T05:50:39.791Z,64.65
2023-05-06T05:53:43.079Z,64.52
2023-05-06T05:56:46.442Z,64.56
2023-05-06T05:59:49.820Z,63.87
2023-05-06T06:02:52.897Z,63.85
2023-05-06T06:05:56.394Z,63.53
2023-05-06T06:09:00.669Z,62.93
2023-05-06T06:12:04.075Z,62.66
2023-05-06T06:15:09.025Z,62.85
2023-05-06T06:18:12.995Z,63.39
2023-05-06T06:21:15.802Z,62.60
2023-05-06T06:24:18.561Z,62.46
2023-05-06T06:27:21.342Z,62.43
2023-05-06T06:30:24.918Z,62.88
2023-05-06T06:33:27.924Z,62.43
2023-05-06T06:36:31.594Z,62.58
2023-05-06T06:39:34.335Z,61.80
2023-05-06T06:42:37.878Z,61.85
2023-05-06T06:45:59.646Z,62.52
2023-05-06T06:49:02.415Z,62.03
2023-05-06T06:52:06.062Z,61.95
2023-05-06T06:55:09.738Z,61.63
2023-05-06T06:58:12.898Z,61.42
2023-05-06T07:01:15.694Z,61.12
2023-05-06T07:04:18.641Z,61.55
2023-05-06T07:07:21.458Z,61.61
2023-05-06T07:10:24.230Z,60.78
2023-05-06T07:13:27.267Z,61.00
2023-05-06T07:16:30.022Z,61.00
2023-05-06T07:19:32.972Z,60.68
2023-05-06T07:22:35.875Z,60.83
2023-05-06T07:25:38.618Z,60.82
2023-05-06T07:28:41.335Z,61.18
2023-05-06T07:31:44.111Z,60.86
2023-05-06T07:34:46.896Z,60.42
2023-05-06T07:37:49.645Z,61.17
2023-05-06T07:40:53.020Z,61.22
2023-05-06T07:43:56.001Z,61.06
2023-05-06T07:46:58.950Z,61.37
2023-05-06T07:50:02.229Z,61.07
2023-05-06T07:53:05.567Z,61.50
2023-05-06T07:56:08.426Z,61.12
2023-05-06T07:59:11.891Z,61.29
2023-05-06T08:02:15.289Z,61.62
2023-05-06T08:05:18.538Z,61.29
2023-05-06T08:08:23.100Z,61.05
2023-05-06T08:11:26.032Z,60.54
2023-05-06T08:14:28.851Z,60.35
2023-05-06T08:17:31.691Z,60.36
2023-05-06T08:20:34.444Z,60.71
2023-05-06T08:23:37.462Z,60.70
2023-05-06T08:26:40.960Z,60.57
2023-05-06T08:29:43.682Z,60.44
2023-05-06T08:32:46.813Z,61.02
2023-05-06T08:35:50.811Z,61.09
2023-05-06T08:38:53.732Z,60.72
2023-05-06T08:41:58.208Z,60.65
2023-05-06T08:45:01.074Z,60.70
2023-05-06T08:48:04.040Z,60.50
2023-05-06T08:51:08.596Z,60.39
2023-05-06T08:54:12.973Z,60.66
2023-05-06T08:57:16.784Z,60.52
2023-05-06T09:00:25.219Z,60.73
2023-05-06T09:03:30.030Z,60.70
2023-05-06T09:06:34.353Z,59.97
2023-05-06T09:09:37.187Z,59.91
2023-05-06T09:12:40.641Z,60.24
2023-05-06T09:15:47.250Z,60.22
2023-05-06T09:18:49.976Z,60.01
2023-05-06T09:21:52.864Z,60.08
2023-05-06T09:24:57.310Z,59.63
2023-05-06T09:28:05.235Z,59.70
2023-05-06T09:31:07.996Z,59.81
2023-05-06T09:34:11.698Z,59.64
2023-05-06T09:37:14.517Z,59.57
2023-05-06T09:40:17.396Z,59.71
2023-05-06T09:43:21.080Z,60.40
2023-05-06T09:46:25.828Z,60.58
2023-05-06T09:49:29.625Z,60.92
2023-05-06T09:52:32.415Z,61.27
2023-05-06T09:55:36.314Z,60.83
2023-05-06T09:58:39.586Z,60.86
2023-05-06T10:01:42.450Z,61.19
2023-05-06T10:04:48.557Z,61.02
2023-05-06T10:07:53.412Z,60.52
2023-05-06T10:10:57.150Z,61.06
2023-05-06T10:14:01.352Z,60.97
2023-05-06T10:17:11.650Z,60.96
2023-05-06T10:20:15.144Z,60.82
2023-05-06T10:23:27.032Z,60.78
2023-05-06T10:26:31.578Z,60.90
2023-05-06T10:29:37.563Z,60.25
2023-05-06T10:32:43.309Z,60.13
2023-05-06T10:36:08.038Z,60.70
2023-05-06T10:39:14.335Z,60.39
2023-05-06T10:42:17.500Z,60.59
2023-05-06T10:45:20.600Z,60.07
2023-05-06T10:48:23.404Z,60.24
2023-05-06T10:51:28.382Z,59.90
2023-05-06T10:54:31.255Z,59.67
2023-05-06T10:57:41.203Z,59.32
2023-05-06T11:00:54.538Z,58.68
2023-05-06T11:03:57.938Z,59.17
2023-05-06T11:07:12.523Z,58.88
2023-05-06T11:10:15.382Z,58.64
2023-05-06T11:13:29.779Z,58.53
2023-05-06T11:16:49.993Z,58.20
2023-05-06T11:20:19.780Z,57.89
2023-05-06T11:23:22.662Z,58.03
2023-05-06T11:26:25.424Z,58.35
2023-05-06T11:29:28.193Z,58.51
2023-05-06T11:32:33.147Z,57.88
2023-05-06T11:35:39.861Z,58.38
2023-05-06T11:38:46.919Z,58.50
2023-05-06T11:41:50.321Z,58.11
2023-05-06T11:45:00.551Z,57.86
2023-05-06T11:48:03.505Z,58.34
2023-05-06T11:51:07.554Z,58.43
2023-05-06T11:54:10.935Z,59.35
2023-05-06T11:57:14.055Z,59.30
2023-05-06T12:00:18.795Z,59.94
2023-05-06T12:03:23.620Z,60.34
2023-05-06T12:06:35.123Z,60.35
2023-05-06T12:09:44.049Z,60.35
2023-05-06T12:12:47.241Z,60.27
2023-05-06T12:15:51.195Z,60.93
2023-05-06T12:18:54.934Z,61.02
2023-05-06T12:22:15.300Z,61.50
2023-05-06T12:25:18.676Z,61.37
2023-05-06T12:28:22.890Z,62.66
2023-05-06T12:31:26.248Z,63.19
2023-05-06T12:34:40.522Z,63.77
2023-05-06T12:37:43.410Z,64.94
2023-05-06T12:40:53.896Z,65.91
2023-05-06T12:43:56.704Z,67.09
2023-05-06T12:47:03.672Z,67.60
2023-05-06T12:50:06.841Z,68.23
2023-05-06T12:53:13.364Z,68.61
2023-05-06T12:56:16.632Z,69.53
2023-05-06T12:59:19.378Z,70.13
2023-05-06T13:02:22.185Z,71.11
2023-05-06T13:05:25.157Z,71.77
2023-05-06T13:08:28.609Z,71.96
2023-05-06T13:11:31.800Z,72.65
2023-05-06T13:14:35.584Z,72.85
2023-05-06T13:17:39.828Z,73.70
2023-05-06T13:20:42.712Z,73.73
2023-05-06T13:23:47.883Z,74.67
2023-05-06T13:26:50.841Z,74.89
2023-05-06T13:29:53.657Z,74.89
2023-05-06T13:32:56.470Z,75.52
2023-05-06T13:35:59.289Z,75.55
2023-05-06T13:39:02.044Z,75.68
2023-05-06T13:42:07.431Z,76.44
2023-05-06T13:45:11.473Z,76.47
2023-05-06T13:48:14.705Z,76.91
2023-05-06T13:51:17.463Z,77.66
2023-05-06T13:54:20.345Z,78.12
2023-05-06T13:57:25.507Z,78.00
2023-05-06T14:00:28.316Z,77.95
2023-05-06T14:03:31.020Z,78.30
2023-05-06T14:06:33.976Z,78.49
2023-05-06T14:09:36.717Z,78.82
2023-05-06T14:12:39.718Z,78.94
2023-05-06T14:15:42.626Z,79.08
2023-05-06T14:18:45.395Z,79.32
2023-05-06T14:21:48.135Z,79.93
2023-05-06T14:24:51.135Z,80.41
2023-05-06T14:27:55.047Z,80.50
2023-05-06T14:30:58.415Z,80.88
2023-05-06T14:34:02.189Z,81.22
2023-05-06T14:37:05.415Z,81.37
2023-05-06T14:40:10.053Z,81.91
2023-05-06T14:43:12.785Z,82.03
2023-05-06T14:46:16.243Z,81.75
2023-05-06T14:49:19.298Z,82.41
2023-05-06T14:52:22.382Z,82.28
2023-05-06T14:55:25.918Z,82.97
2023-05-06T14:58:28.631Z,82.47
2023-05-06T15:01:33.651Z,82.59
2023-05-06T15:04:37.018Z,82.87
2023-05-06T15:07:39.874Z,82.65
2023-05-06T15:10:42.875Z,82.88
2023-05-06T15:13:45.726Z,82.73
2023-05-06T15:16:48.570Z,82.71
2023-05-06T15:19:51.788Z,82.93
2023-05-06T15:22:54.542Z,82.79
2023-05-06T15:25:58.134Z,82.87
2023-05-06T15:29:01.015Z,82.83
2023-05-06T15:32:04.145Z,82.45
2023-05-06T15:35:07.524Z,82.85
2023-05-06T15:38:11.053Z,82.85
2023-05-06T15:41:13.903Z,82.58
2023-05-06T15:44:16.748Z,82.77
2023-05-06T15:47:19.860Z,83.20
2023-05-06T15:50:32.886Z,83.20
2023-05-06T15:53:40.735Z,83.21
2023-05-06T15:56:43.478Z,83.52
2023-05-06T15:59:46.209Z,83.85
2023-05-06T16:02:49.385Z,83.70
2023-05-06T16:05:58.018Z,84.20
2023-05-06T16:09:01.042Z,84.24
2023-05-06T16:12:04.898Z,84.58
2023-05-06T16:15:08.613Z,84.47
2023-05-06T16:18:11.446Z,84.62
2023-05-06T16:21:14.248Z,84.68
2023-05-06T16:24:16.981Z,84.67
2023-05-06T16:27:19.868Z,85.28
2023-05-06T16:30:23.199Z,85.35
2023-05-06T16:33:25.996Z,85.07
2023-05-06T16:36:28.852Z,85.38
2023-05-06T16:39:31.682Z,85.27
2023-05-06T16:42:34.533Z,85.45
2023-05-06T16:45:38.270Z,85.60
2023-05-06T16:48:41.258Z,85.46
2023-05-06T16:51:44.030Z,85.82
2023-05-06T16:54:46.943Z,86.26
2023-05-06T16:57:50.205Z,86.12
2023-05-06T17:00:54.431Z,86.38
2023-05-06T17:03:57.171Z,86.72
2023-05-06T17:06:59.927Z,86.74
2023-05-06T17:10:02.812Z,86.98
2023-05-06T17:13:05.922Z,87.18
2023-05-06T17:16:08.952Z,87.64
2023-05-06T17:19:12.272Z,87.64
2023-05-06T17:22:16.176Z,87.79
2023-05-06T17:25:18.983Z,87.92
2023-05-06T17:28:21.933Z,87.69
2023-05-06T17:31:25.016Z,87.79
2023-05-06T17:34:27.858Z,88.11
2023-05-06T17:37:31.592Z,88.23
2023-05-06T17:40:34.625Z,88.23
2023-05-06T17:43:37.421Z,88.47
2023-05-06T17:46:40.248Z,88.57
2023-05-06T17:49:43.177Z,88.44
2023-05-06T17:52:51.109Z,88.75
2023-05-06T17:55:54.057Z,88.36
2023-05-06T17:59:01.259Z,88.95
2023-05-06T18:02:04.354Z,88.94
2023-05-06T18:05:08.420Z,88.99
2023-05-06T18:08:11.593Z,88.69
2023-05-06T18:11:15.939Z,88.62
2023-05-06T18:14:18.670Z,88.96
2023-05-06T18:17:21.805Z,88.89
2023-05-06T18:20:24.873Z,88.87
2023-05-06T18:23:29.465Z,89.16
2023-05-06T18:26:44.120Z,88.82
2023-05-06T18:29:48.467Z,89.02
2023-05-06T18:32:52.884Z,89.04
2023-05-06T18:35:57.223Z,89.01
2023-05-06T18:39:00.117Z,88.86
2023-05-06T18:42:03.958Z,89.08
2023-05-06T18:45:07.602Z,89.16
2023-05-06T18:48:11.085Z,89.32
2023-05-06T18:51:16.213Z,89.20
2023-05-06T18:54:18.978Z,89.24
2023-05-06T18:57:21.754Z,89.43
2023-05-06T19:00:26.420Z,89.50
2023-05-06T19:03:30.559Z,89.74
2023-05-06T19:06:33.650Z,89.85
2023-05-06T19:09:37.278Z,89.77
2023-05-06T19:12:41.598Z,89.73
2023-05-06T19:15:44.496Z,89.74
2023-05-06T19:18:47.913Z,89.74
2023-05-06T19:21:50.799Z,89.53
2023-05-06T19:24:53.554Z,89.56
2023-05-06T19:27:56.439Z,89.86
2023-05-06T19:30:59.401Z,89.60
2023-05-06T19:34:02.298Z,89.80
2023-05-06T19:37:05.093Z,89.45
2023-05-06T19:40:09.152Z,89.33
2023-05-06T19:43:12.015Z,89.60
2023-05-06T19:46:16.096Z,89.70
2023-05-06T19:49:18.849Z,89.58
2023-05-06T19:52:22.107Z,89.51
2023-05-06T19:55:25.587Z,89.41
2023-05-06T19:58:28.340Z,89.45
2023-05-06T20:01:31.285Z,89.69
2023-05-06T20:04:34.755Z,89.46
2023-05-06T20:07:38.261Z,89.54
2023-05-06T20:10:41.112Z,89.38
2023-05-06T20:13:43.868Z,89.62
2023-05-06T20:16:46.636Z,89.67
2023-05-06T20:19:50.037Z,89.53
2023-05-06T20:22:52.896Z,89.78
2023-05-06T20:25:55.878Z,89.77
2023-05-06T20:28:59.093Z,89.63
2023-05-06T20:32:02.166Z,89.64
2023-05-06T20:35:06.333Z,89.45
2023-05-06T20:38:09.415Z,89.72
2023-05-06T20:41:12.158Z,89.76
2023-05-06T20:44:14.881Z,89.78
2023-05-06T20:47:18.401Z,89.65
2023-05-06T20:50:21.225Z,89.43
2023-05-06T20:53:24.307Z,89.64
2023-05-06T20:56:27.826Z,89.51
2023-05-06T20:59:30.611Z,89.40
2023-05-06T21:02:35.942Z,89.50
2023-05-06T21:05:43.248Z,89.43
2023-05-06T21:08:46.729Z,89.49
2023-05-06T21:11:49.589Z,89.33
2023-05-06T21:14:52.385Z,89.37
2023-05-06T21:17:55.226Z,88.95
2023-05-06T21:20:58.148Z,89.09
2023-05-06T21:24:01.218Z,88.75
2023-05-06T21:27:04.439Z,89.00
2023-05-06T21:30:08.970Z,88.85
2023-05-06T21:33:11.763Z,89.11
2023-05-06T21:36:14.651Z,89.17
2023-05-06T21:39:17.379Z,88.99
2023-05-06T21:42:20.586Z,88.97
2023-05-06T21:45:23.321Z,89.12
2023-05-06T21:48:26.226Z,88.96
2023-05-06T21:51:32.584Z,88.93
2023-05-06T21:54:35.440Z,89.12
2023-05-06T21:57:38.854Z,89.23
2023-05-06T22:00:41.833Z,89.20
2023-05-06T22:03:46.018Z,89.42
2023-05-06T22:06:48.918Z,89.36
2023-05-06T22:09:51.728Z,89.24
2023-05-06T22:12:54.546Z,89.70
2023-05-06T22:15:57.861Z,89.54
2023-05-06T22:19:02.135Z,89.41
2023-05-06T22:22:04.953Z,89.72
2023-05-06T22:25:08.687Z,89.37
2023-05-06T22:28:12.020Z,89.63
2023-05-06T22:31:15.626Z,89.24
2023-05-06T22:34:18.405Z,89.54
2023-05-06T22:37:21.444Z,89.57
2023-05-06T22:40:24.454Z,89.61
2023-05-06T22:43:27.211Z,89.45
2023-05-06T22:46:30.328Z,89.37
2023-05-06T22:49:33.205Z,89.67
2023-05-06T22:52:35.910Z,89.42
2023-05-06T22:55:40.800Z,89.69
2023-05-06T22:58:43.598Z,89.52
2023-05-06T23:01:46.542Z,89.62
2023-05-06T23:04:49.490Z,89.73
2023-05-06T23:07:52.192Z,89.50
2023-05-06T23:10:55.158Z,89.48
2023-05-06T23:13:57.867Z,89.48
2023-05-06T23:17:00.728Z,89.67
2023-05-06T23:20:04.475Z,89.30
2023-05-06T23:23:10.607Z,89.21
2023-05-06T23:26:13.334Z,88.86
2023-05-06T23:29:16.152Z,89.16
2023-05-06T23:32:18.860Z,89.03
2023-05-06T23:35:21.572Z,89.04
2023-05-06T23:38:24.427Z,89.04
2023-05-06T23:41:27.222Z,89.15
2023-05-06T23:44:30.197Z,89.00
2023-05-06T23:47:32.961Z,89.00
2023-05-06T23:50:35.801Z,89.24
2023-05-06T23:53:38.516Z,89.30
2023-05-06T23:56:41.656Z,89.52
2023-05-06T23:59:44.405Z,89.54
